createdAt,value
2019-05-02T00:00:00.905Z,27.55
2019-05-02T00:01:14.111Z,28.67
2019-05-02T00:02:23.998Z,26.77
2019-05-02T00:03:26.991Z,27.70
2019-05-02T00:04:31.295Z,25.40
2019-05-02T00:05:35.799Z,26.57
2019-05-02T00:06:42.861Z,26.95
2019-05-02T00:07:58.536Z,26.30
2019-05-02T00:09:12.254Z,25.37
2019-05-02T00:10:24.837Z,25.90
2019-05-02T00:11:30.218Z,27.07
2019-05-02T00:12:34.739Z,26.33
2019-05-02T00:13:40.107Z,27.17
2019-05-02T00:14:44.576Z,27.43
2019-05-02T00:15:50.257Z,25.80
2019-05-02T00:16:54.507Z,26.48
2019-05-02T00:18:01.388Z,26.73
2019-05-02T00:19:09.224Z,27.82
2019-05-02T00:20:11.655Z,26.40
2019-05-02T00:21:16.658Z,28.47
2019-05-02T00:22:21.987Z,29.03
2019-05-02T00:23:28.102Z,28.98
2019-05-02T00:24:33.958Z,28.50
2019-05-02T00:25:39.068Z,27.25
2019-05-02T00:26:43.384Z,27.25
2019-05-02T00:27:47.676Z,28.62
2019-05-02T00:28:55.443Z,27.02
2019-05-02T00:30:00.425Z,29.07
2019-05-02T00:31:07.470Z,27.13
2019-05-02T00:32:11.977Z,28.43
2019-05-02T00:33:16.142Z,28.60
2019-05-02T00:34:20.387Z,30.23
2019-05-02T00:35:24.667Z,30.02
2019-05-02T00:36:28.845Z,28.98
2019-05-02T00:37:33.022Z,27.27
2019-05-02T00:38:38.797Z,28.45
2019-05-02T00:39:45.115Z,28.47
2019-05-02T00:40:49.220Z,28.57
2019-05-02T00:41:53.566Z,28.02
2019-05-02T00:43:00.603Z,28.02
2019-05-02T00:44:10.571Z,29.07
2019-05-02T00:45:14.088Z,28.83
2019-05-02T00:46:18.046Z,28.77
2019-05-02T00:47:33.849Z,30.35
2019-05-02T00:48:42.592Z,27.00
2019-05-02T00:49:48.255Z,27.05
2019-05-02T00:50:52.587Z,30.02
2019-05-02T00:52:01.241Z,27.17
2019-05-02T00:53:02.594Z,28.90
2019-05-02T00:54:06.760Z,31.27
2019-05-02T00:55:10.937Z,30.10
2019-05-02T00:56:15.272Z,30.77
2019-05-02T00:57:20.053Z,30.93
2019-05-02T00:58:27.373Z,31.77
2019-05-02T00:59:31.577Z,31.12
2019-05-02T01:00:40.414Z,32.23
2019-05-02T01:01:49.224Z,31.35
2019-05-02T01:02:56.076Z,30.60
2019-05-02T01:04:01.893Z,33.63
2019-05-02T01:05:06.351Z,30.92
2019-05-02T01:06:14.411Z,33.50
2019-05-02T01:07:20.268Z,32.30
2019-05-02T01:08:22.992Z,34.83
2019-05-02T01:09:27.244Z,32.93
2019-05-02T01:10:31.493Z,35.88
2019-05-02T01:11:36.174Z,34.83
2019-05-02T01:12:44.458Z,33.92
2019-05-02T01:13:50.381Z,36.03
2019-05-02T01:14:52.653Z,36.00
2019-05-02T01:15:56.832Z,36.15
2019-05-02T01:17:01.252Z,38.48
2019-05-02T01:18:08.073Z,38.50
2019-05-02T01:19:16.052Z,39.73
2019-05-02T01:20:22.139Z,39.90
2019-05-02T01:21:24.555Z,44.18
2019-05-02T01:22:28.805Z,43.90
2019-05-02T01:23:33.101Z,44.42
2019-05-02T01:24:39.913Z,43.25
2019-05-02T01:25:47.346Z,44.70
2019-05-02T01:26:54.061Z,44.53
2019-05-02T01:28:17.614Z,43.92
2019-05-02T01:29:24.912Z,46.53
2019-05-02T01:30:46.804Z,44.90
2019-05-02T01:32:10.762Z,46.42
2019-05-02T01:33:16.646Z,45.40
2019-05-02T01:34:22.509Z,44.80
2019-05-02T01:35:31.566Z,48.20
2019-05-02T01:36:36.708Z,43.38
2019-05-02T01:37:59.614Z,45.55
2019-05-02T01:39:07.547Z,46.22
2019-05-02T01:40:17.547Z,46.57
2019-05-02T01:41:18.972Z,47.48
2019-05-02T01:42:23.187Z,46.75
2019-05-02T01:43:29.542Z,46.80
2019-05-02T01:44:36.366Z,46.92
2019-05-02T01:45:41.869Z,47.40
2019-05-02T01:46:45.544Z,48.20
2019-05-02T01:47:54.132Z,47.20
2019-05-02T01:48:59.367Z,48.93
2019-05-02T01:50:05.208Z,49.88
2019-05-02T01:51:11.936Z,48.15
2019-05-02T01:52:18.989Z,46.57
2019-05-02T01:53:21.334Z,48.33
2019-05-02T01:54:26.583Z,46.80
2019-05-02T01:55:30.842Z,49.33
2019-05-02T01:56:35.309Z,48.15
2019-05-02T01:57:39.888Z,48.13
2019-05-02T01:58:45.541Z,48.55
2019-05-02T01:59:59.076Z,47.88
2019-05-02T02:01:05.154Z,49.06
2019-05-02T02:02:09.404Z,48.17
2019-05-02T02:03:16.293Z,49.83
2019-05-02T02:04:22.137Z,48.47
2019-05-02T02:05:27.618Z,49.42
2019-05-02T02:06:32.578Z,48.13
2019-05-02T02:07:36.965Z,49.65
2019-05-02T02:08:41.355Z,50.20
2019-05-02T02:09:45.877Z,51.00
2019-05-02T02:10:55.657Z,50.90
2019-05-02T02:11:56.202Z,51.20
2019-05-02T02:13:04.602Z,51.08
2019-05-02T02:14:12.173Z,53.13
2019-05-02T02:15:13.066Z,51.67
2019-05-02T02:16:17.384Z,54.00
2019-05-02T02:17:22.431Z,53.27
2019-05-02T02:18:29.425Z,55.17
2019-05-02T02:19:39.141Z,52.50
2019-05-02T02:20:49.333Z,51.83
2019-05-02T02:22:02.186Z,50.10
2019-05-02T02:23:10.141Z,53.55
2019-05-02T02:24:16.221Z,52.70
2019-05-02T02:25:27.132Z,54.30
2019-05-02T02:26:31.316Z,51.77
2019-05-02T02:27:35.524Z,50.38
2019-05-02T02:28:39.843Z,52.45
2019-05-02T02:29:45.326Z,52.23
2019-05-02T02:30:50.674Z,51.37
2019-05-02T02:31:55.441Z,51.85
2019-05-02T02:33:07.770Z,51.58
2019-05-02T02:34:06.293Z,51.37
2019-05-02T02:35:12.604Z,52.30
2019-05-02T02:36:29.985Z,51.33
2019-05-02T02:37:22.941Z,49.08
2019-05-02T02:38:33.630Z,50.08
2019-05-02T02:39:33.077Z,49.25
2019-05-02T02:40:38.610Z,47.73
2019-05-02T02:41:52.286Z,49.90
2019-05-02T02:42:51.911Z,49.60
2019-05-02T02:44:03.545Z,50.95
2019-05-02T02:45:12.954Z,49.15
2019-05-02T02:46:19.888Z,50.50
2019-05-02T02:47:24.365Z,49.85
2019-05-02T02:48:33.585Z,50.58
2019-05-02T02:49:35.864Z,49.48
2019-05-02T02:50:42.925Z,48.70
2019-05-02T02:51:46.446Z,49.03
2019-05-02T02:52:50.673Z,50.48
2019-05-02T02:54:03.145Z,51.40
2019-05-02T02:55:00.866Z,48.73
2019-05-02T02:56:07.855Z,49.85
2019-05-02T02:57:19.963Z,47.20
2019-05-02T02:58:18.139Z,50.50
2019-05-02T02:59:26.232Z,48.92
2019-05-02T03:00:28.418Z,49.05
2019-05-02T03:01:35.425Z,49.10
2019-05-02T03:02:47.791Z,48.17
2019-05-02T03:03:45.720Z,49.93
2019-05-02T03:04:49.934Z,50.97
2019-05-02T03:06:05.267Z,50.03
2019-05-02T03:07:04.989Z,47.62
2019-05-02T03:08:09.234Z,47.38
2019-05-02T03:09:13.720Z,50.50
2019-05-02T03:10:19.576Z,49.90
2019-05-02T03:11:25.791Z,50.03
2019-05-02T03:12:54.793Z,48.98
2019-05-02T03:14:07.602Z,51.18
2019-05-02T03:15:20.687Z,49.80
2019-05-02T03:16:30.777Z,49.03
2019-05-02T03:17:34.951Z,48.08
2019-05-02T03:18:40.555Z,49.33
2019-05-02T03:19:45.170Z,49.60
2019-05-02T03:20:49.365Z,50.03
2019-05-02T03:21:54.531Z,50.45
2019-05-02T03:23:00.084Z,51.60
2019-05-02T03:24:05.758Z,51.48
2019-05-02T03:25:10.334Z,50.23
2019-05-02T03:26:15.782Z,50.93
2019-05-02T03:27:20.578Z,50.40
2019-05-02T03:28:24.763Z,51.50
2019-05-02T03:29:39.801Z,52.00
2019-05-02T03:30:37.570Z,49.67
2019-05-02T03:31:41.019Z,52.10
2019-05-02T03:33:03.005Z,50.60
2019-05-02T03:33:56.294Z,51.37
2019-05-02T03:34:57.677Z,52.08
2019-05-02T03:36:01.836Z,50.90
2019-05-02T03:37:10.249Z,51.13
2019-05-02T03:38:17.290Z,51.77
2019-05-02T03:39:22.394Z,51.15
2019-05-02T03:40:32.205Z,51.15
2019-05-02T03:41:33.067Z,51.65
2019-05-02T03:42:47.730Z,51.13
2019-05-02T03:44:12.079Z,52.35
2019-05-02T03:45:16.570Z,53.40
2019-05-02T03:46:22.692Z,51.70
2019-05-02T03:47:27.430Z,54.10
2019-05-02T03:48:31.817Z,53.03
2019-05-02T03:49:40.757Z,53.10
2019-05-02T03:50:45.546Z,51.53
2019-05-02T03:51:55.896Z,52.80
2019-05-02T03:52:56.478Z,51.05
2019-05-02T03:54:07.390Z,50.95
2019-05-02T03:55:06.943Z,54.08
2019-05-02T03:56:13.797Z,50.93
2019-05-02T03:57:17.066Z,54.87
2019-05-02T03:58:21.892Z,53.13
2019-05-02T03:59:37.097Z,53.15
2019-05-02T04:00:32.622Z,50.33
2019-05-02T04:01:41.495Z,52.27
2019-05-02T04:02:45.866Z,52.23
2019-05-02T04:03:57.082Z,54.20
2019-05-02T04:05:00.535Z,53.80
2019-05-02T04:06:05.092Z,54.16
2019-05-02T04:07:09.648Z,50.40
2019-05-02T04:08:20.729Z,51.33
2019-05-02T04:09:38.840Z,51.93
2019-05-02T04:10:46.178Z,51.92
2019-05-02T04:11:50.488Z,53.42
2019-05-02T04:12:58.361Z,51.55
2019-05-02T04:14:00.527Z,53.17
2019-05-02T04:15:09.756Z,52.95
2019-05-02T04:16:15.354Z,52.33
2019-05-02T04:17:19.587Z,52.27
2019-05-02T04:18:23.909Z,54.45
2019-05-02T04:19:28.676Z,51.40
2019-05-02T04:20:36.866Z,50.40
2019-05-02T04:21:41.062Z,54.60
2019-05-02T04:22:49.071Z,52.13
2019-05-02T04:23:51.672Z,52.55
2019-05-02T04:24:56.857Z,52.93
2019-05-02T04:26:06.816Z,52.05
2019-05-02T04:27:13.682Z,53.00
2019-05-02T04:28:18.367Z,53.00
2019-05-02T04:29:31.298Z,53.43
2019-05-02T04:30:32.556Z,53.65
2019-05-02T04:31:38.585Z,51.05
2019-05-02T04:32:49.895Z,51.63
2019-05-02T04:33:51.238Z,52.70
2019-05-02T04:34:58.019Z,52.03
2019-05-02T04:36:13.525Z,50.88
2019-05-02T04:37:08.378Z,53.42
2019-05-02T04:38:20.378Z,51.53
2019-05-02T04:39:21.630Z,51.37
2019-05-02T04:40:24.431Z,50.78
2019-05-02T04:41:30.739Z,52.95
2019-05-02T04:42:35.843Z,50.03
2019-05-02T04:43:50.344Z,52.58
2019-05-02T04:45:09.562Z,49.80
2019-05-02T04:45:56.400Z,51.98
2019-05-02T04:46:59.756Z,53.07
2019-05-02T04:48:04.249Z,50.92
2019-05-02T04:49:09.175Z,52.43
2019-05-02T04:50:17.880Z,51.57
2019-05-02T04:51:20.670Z,51.88
2019-05-02T04:52:25.216Z,50.00
2019-05-02T04:53:36.732Z,51.15
2019-05-02T04:54:35.354Z,50.70
2019-05-02T04:55:39.605Z,50.40
2019-05-02T04:56:49.530Z,52.62
2019-05-02T04:57:50.941Z,52.90
2019-05-02T04:58:55.447Z,51.15
2019-05-02T05:00:06.485Z,53.85
2019-05-02T05:01:05.705Z,51.23
2019-05-02T05:02:09.918Z,51.67
2019-05-02T05:03:15.787Z,51.07
2019-05-02T05:04:19.976Z,51.97
2019-05-02T05:05:27.368Z,50.50
2019-05-02T05:06:31.113Z,49.40
2019-05-02T05:07:40.864Z,51.98
2019-05-02T05:08:41.693Z,52.17
2019-05-02T05:09:47.971Z,51.70
2019-05-02T05:10:52.262Z,52.83
2019-05-02T05:11:58.997Z,52.98
2019-05-02T05:13:02.497Z,49.85
2019-05-02T05:14:07.152Z,51.63
2019-05-02T05:15:15.165Z,53.33
2019-05-02T05:16:18.843Z,52.77
2019-05-02T05:17:25.183Z,52.88
2019-05-02T05:18:29.038Z,54.15
2019-05-02T05:19:33.271Z,52.97
2019-05-02T05:20:38.584Z,53.23
2019-05-02T05:21:43.441Z,52.20
2019-05-02T05:22:47.930Z,53.68
2019-05-02T05:23:59.592Z,54.40
2019-05-02T05:25:01.469Z,55.40
2019-05-02T05:26:07.281Z,54.95
2019-05-02T05:27:13.185Z,54.40
2019-05-02T05:28:19.754Z,56.17
2019-05-02T05:29:23.514Z,54.77
2019-05-02T05:30:27.834Z,56.02
2019-05-02T05:31:32.390Z,54.23
2019-05-02T05:32:37.574Z,55.35
2019-05-02T05:33:41.822Z,53.73
2019-05-02T05:34:47.829Z,54.90
2019-05-02T05:35:52.682Z,54.38
2019-05-02T05:36:58.333Z,53.50
2019-05-02T05:38:02.764Z,54.58
2019-05-02T05:39:08.548Z,54.00
2019-05-02T05:40:12.996Z,53.20
2019-05-02T05:41:22.760Z,52.97
2019-05-02T05:42:30.240Z,53.80
2019-05-02T05:43:29.957Z,52.73
2019-05-02T05:44:34.142Z,54.13
2019-05-02T05:45:50.778Z,54.25
2019-05-02T05:46:46.970Z,51.80
2019-05-02T05:47:52.361Z,54.42
2019-05-02T05:48:57.811Z,53.08
2019-05-02T05:50:02.033Z,55.55
2019-05-02T05:51:07.279Z,53.42
2019-05-02T05:52:11.575Z,54.07
2019-05-02T05:53:17.373Z,53.00
2019-05-02T05:54:21.763Z,52.90
2019-05-02T05:55:28.004Z,53.05
2019-05-02T05:56:32.552Z,52.73
2019-05-02T05:57:38.477Z,52.78
2019-05-02T05:58:48.086Z,51.50
2019-05-02T05:59:48.682Z,52.45
2019-05-02T06:00:55.339Z,53.00
2019-05-02T06:02:05.387Z,52.20
2019-05-02T06:03:13.119Z,51.33
2019-05-02T06:04:13.870Z,51.83
2019-05-02T06:05:18.413Z,52.33
2019-05-02T06:06:24.457Z,52.80
2019-05-02T06:07:33.093Z,51.25
2019-05-02T06:08:34.922Z,51.75
2019-05-02T06:09:39.171Z,51.68
2019-05-02T06:10:44.047Z,51.25
2019-05-02T06:11:50.777Z,50.78
2019-05-02T06:12:55.292Z,53.20
2019-05-02T06:13:59.472Z,52.90
2019-05-02T06:15:04.523Z,50.15
2019-05-02T06:16:10.587Z,54.75
2019-05-02T06:17:14.907Z,51.00
2019-05-02T06:18:19.037Z,54.27
2019-05-02T06:19:23.378Z,51.60
2019-05-02T06:20:30.531Z,52.50
2019-05-02T06:21:33.532Z,50.10
2019-05-02T06:22:37.983Z,54.08
2019-05-02T06:23:42.168Z,52.58
2019-05-02T06:24:50.848Z,53.98
2019-05-02T06:25:53.518Z,51.33
2019-05-02T06:26:57.707Z,53.92
2019-05-02T06:28:05.394Z,52.35
2019-05-02T06:29:08.325Z,55.28
2019-05-02T06:30:12.569Z,54.67
2019-05-02T06:31:17.310Z,53.50
2019-05-02T06:32:21.710Z,56.53
2019-05-02T06:33:30.434Z,57.20
2019-05-02T06:34:31.999Z,53.23
2019-05-02T06:35:37.326Z,54.93
2019-05-02T06:36:41.541Z,54.13
2019-05-02T06:37:49.934Z,54.27
2019-05-02T06:38:56.160Z,53.15
2019-05-02T06:39:57.804Z,54.18
2019-05-02T06:41:01.987Z,55.05
2019-05-02T06:42:06.210Z,53.75
2019-05-02T06:43:11.409Z,52.95
2019-05-02T06:44:18.655Z,52.50
2019-05-02T06:45:22.889Z,52.23
2019-05-02T06:46:28.216Z,54.10
2019-05-02T06:47:36.039Z,52.78
2019-05-02T06:48:39.101Z,53.48
2019-05-02T06:49:43.369Z,53.97
2019-05-02T06:50:47.658Z,52.93
2019-05-02T06:51:56.240Z,53.30
2019-05-02T06:52:57.990Z,53.58
2019-05-02T06:54:02.246Z,53.87
2019-05-02T06:55:07.045Z,54.93
2019-05-02T06:56:12.700Z,51.87
2019-05-02T06:57:19.013Z,52.53
2019-05-02T06:58:24.031Z,49.97
2019-05-02T06:59:29.034Z,53.55
2019-05-02T07:00:38.424Z,52.15
2019-05-02T07:01:39.301Z,54.93
2019-05-02T07:02:43.537Z,50.65
2019-05-02T07:03:47.739Z,53.60
2019-05-02T07:04:54.825Z,53.02
2019-05-02T07:05:58.765Z,51.70
2019-05-02T07:07:05.011Z,52.84
2019-05-02T07:08:11.816Z,54.53
2019-05-02T07:09:15.247Z,53.73
2019-05-02T07:10:25.276Z,53.07
2019-05-02T07:11:26.000Z,51.37
2019-05-02T07:12:30.260Z,52.60
2019-05-02T07:13:36.310Z,53.38
2019-05-02T07:14:41.275Z,51.77
2019-05-02T07:15:50.620Z,51.83
2019-05-02T07:16:59.411Z,54.17
2019-05-02T07:18:10.682Z,53.08
2019-05-02T07:19:21.870Z,51.57
2019-05-02T07:20:24.765Z,52.73
2019-05-02T07:21:29.266Z,53.45
2019-05-02T07:22:38.768Z,53.92
2019-05-02T07:23:39.405Z,53.68
2019-05-02T07:24:43.680Z,52.43
2019-05-02T07:25:47.937Z,53.87
2019-05-02T07:26:56.481Z,54.27
2019-05-02T07:27:58.128Z,52.50
2019-05-02T07:29:02.381Z,54.25
2019-05-02T07:30:07.755Z,53.17
2019-05-02T07:31:13.874Z,53.07
2019-05-02T07:32:19.348Z,52.97
2019-05-02T07:33:23.857Z,52.43
2019-05-02T07:34:28.044Z,51.80
2019-05-02T07:35:32.271Z,51.95
2019-05-02T07:36:38.327Z,55.17
2019-05-02T07:37:44.016Z,55.25
2019-05-02T07:38:48.547Z,54.73
2019-05-02T07:39:53.228Z,54.08
2019-05-02T07:40:57.377Z,52.58
2019-05-02T07:42:05.915Z,53.40
2019-05-02T07:43:07.626Z,52.80
2019-05-02T07:44:11.882Z,52.80
2019-05-02T07:45:16.282Z,52.83
2019-05-02T07:46:21.047Z,53.33
2019-05-02T07:47:28.901Z,52.85
2019-05-02T07:48:33.425Z,53.50
2019-05-02T07:49:37.684Z,52.35
2019-05-02T07:50:46.395Z,52.67
2019-05-02T07:51:52.335Z,52.83
2019-05-02T07:52:54.792Z,51.65
2019-05-02T07:53:59.110Z,52.95
2019-05-02T07:55:06.634Z,51.83
2019-05-02T07:56:12.422Z,52.15
2019-05-02T07:57:15.802Z,52.13
2019-05-02T07:58:19.995Z,55.23
2019-05-02T07:59:25.139Z,54.07
2019-05-02T08:00:37.182Z,52.67
2019-05-02T08:01:44.896Z,51.08
2019-05-02T08:02:46.675Z,52.13
2019-05-02T08:03:50.862Z,52.05
2019-05-02T08:04:55.040Z,51.00
2019-05-02T08:06:00.316Z,51.80
2019-05-02T08:07:04.953Z,50.54
2019-05-02T08:08:09.233Z,49.83
2019-05-02T08:09:13.510Z,50.25
2019-05-02T08:10:22.061Z,51.98
2019-05-02T08:11:24.412Z,51.92
2019-05-02T08:12:28.710Z,50.05
2019-05-02T08:13:32.946Z,47.67
2019-05-02T08:14:37.193Z,47.67
2019-05-02T08:15:45.597Z,47.78
2019-05-02T08:16:47.404Z,48.68
2019-05-02T08:17:53.885Z,48.87
2019-05-02T08:19:01.314Z,49.33
2019-05-02T08:20:08.413Z,50.28
2019-05-02T08:21:11.546Z,49.58
2019-05-02T08:22:15.830Z,49.27
2019-05-02T08:23:25.508Z,51.43
2019-05-02T08:24:26.081Z,52.23
2019-05-02T08:25:30.268Z,48.90
2019-05-02T08:26:45.001Z,48.55
2019-05-02T08:28:00.138Z,44.58
2019-05-02T08:29:06.350Z,49.50
2019-05-02T08:30:12.352Z,50.50
2019-05-02T08:31:18.851Z,50.20
2019-05-02T08:32:22.540Z,51.33
2019-05-02T08:33:29.297Z,51.53
2019-05-02T08:34:33.842Z,47.53
2019-05-02T08:35:38.022Z,49.67
2019-05-02T08:36:42.313Z,48.52
2019-05-02T08:37:46.605Z,48.25
2019-05-02T08:38:53.587Z,48.98
2019-05-02T08:39:56.775Z,49.45
2019-05-02T08:41:01.365Z,51.95
2019-05-02T08:42:05.809Z,49.65
2019-05-02T08:43:10.964Z,49.30
2019-05-02T08:44:16.982Z,49.93
2019-05-02T08:45:22.293Z,48.50
2019-05-02T08:46:26.582Z,50.20
2019-05-02T08:47:30.847Z,48.70
2019-05-02T08:48:36.419Z,49.67
2019-05-02T08:49:42.526Z,47.70
2019-05-02T08:50:46.956Z,47.23
2019-05-02T08:51:51.195Z,50.10
2019-05-02T08:52:55.361Z,49.42
2019-05-02T08:53:59.540Z,48.30
2019-05-02T08:55:09.915Z,46.77
2019-05-02T08:56:16.499Z,48.23
2019-05-02T08:57:17.852Z,49.40
2019-05-02T08:58:22.542Z,51.10
2019-05-02T08:59:26.797Z,46.00
2019-05-02T09:00:32.110Z,49.42
2019-05-02T09:01:37.248Z,48.65
2019-05-02T09:02:42.182Z,47.90
2019-05-02T09:03:55.193Z,48.68
2019-05-02T09:04:58.721Z,50.23
2019-05-02T09:06:05.707Z,49.18
2019-05-02T09:07:05.009Z,47.48
2019-05-02T09:08:14.059Z,47.00
2019-05-02T09:09:15.371Z,47.50
2019-05-02T09:10:19.553Z,48.07
2019-05-02T09:11:25.034Z,47.13
2019-05-02T09:12:31.548Z,46.58
2019-05-02T09:13:37.189Z,48.85
2019-05-02T09:14:42.582Z,47.55
2019-05-02T09:15:51.241Z,46.83
2019-05-02T09:16:52.735Z,49.20
2019-05-02T09:17:56.914Z,50.65
2019-05-02T09:19:02.770Z,50.65
2019-05-02T09:20:15.430Z,48.80
2019-05-02T09:21:13.168Z,48.93
2019-05-02T09:22:17.347Z,47.77
2019-05-02T09:23:22.798Z,48.17
2019-05-02T09:24:27.058Z,48.63
2019-05-02T09:25:32.407Z,51.65
2019-05-02T09:26:38.739Z,47.75
2019-05-02T09:27:42.964Z,46.95
2019-05-02T09:28:47.141Z,50.17
2019-05-02T09:29:51.902Z,47.78
2019-05-02T09:30:57.264Z,46.23
2019-05-02T09:32:02.368Z,49.65
2019-05-02T09:33:06.868Z,48.60
2019-05-02T09:34:11.832Z,49.63
2019-05-02T09:35:16.061Z,47.37
2019-05-02T09:36:20.283Z,46.20
2019-05-02T09:37:24.459Z,44.90
2019-05-02T09:38:28.745Z,49.05
2019-05-02T09:39:36.492Z,48.73
2019-05-02T09:40:38.936Z,47.27
2019-05-02T09:41:43.279Z,46.98
2019-05-02T09:42:52.121Z,50.00
2019-05-02T09:43:53.371Z,47.70
2019-05-02T09:44:57.643Z,45.88
2019-05-02T09:46:02.589Z,44.03
2019-05-02T09:47:06.896Z,45.58
2019-05-02T09:48:12.606Z,49.70
2019-05-02T09:49:16.947Z,49.63
2019-05-02T09:50:29.534Z,47.90
2019-05-02T09:51:27.204Z,47.13
2019-05-02T09:52:32.198Z,48.00
2019-05-02T09:53:37.409Z,46.68
2019-05-02T09:54:45.909Z,45.10
2019-05-02T09:55:52.076Z,45.40
2019-05-02T09:56:53.828Z,46.18
2019-05-02T09:57:58.167Z,46.60
2019-05-02T09:59:22.738Z,47.23
2019-05-02T10:00:32.218Z,46.40
2019-05-02T10:01:34.936Z,44.95
2019-05-02T10:02:39.368Z,45.95
2019-05-02T10:03:43.810Z,46.20
2019-05-02T10:04:48.118Z,44.40
2019-05-02T10:05:52.449Z,45.90
2019-05-02T10:06:56.755Z,46.30
2019-05-02T10:08:03.104Z,42.83
2019-05-02T10:09:07.302Z,45.90
2019-05-02T10:10:14.072Z,45.03
2019-05-02T10:11:22.459Z,42.90
2019-05-02T10:12:24.204Z,42.58
2019-05-02T10:13:28.399Z,44.03
2019-05-02T10:14:33.142Z,47.15
2019-05-02T10:15:37.504Z,45.92
2019-05-02T10:16:42.642Z,44.55
2019-05-02T10:17:46.992Z,44.30
2019-05-02T10:18:52.302Z,44.48
2019-05-02T10:19:57.298Z,43.23
2019-05-02T10:21:03.040Z,44.58
2019-05-02T10:22:07.552Z,42.98
2019-05-02T10:23:19.345Z,44.97
2019-05-02T10:24:18.079Z,45.87
2019-05-02T10:25:23.150Z,43.90
2019-05-02T10:26:28.552Z,44.83
2019-05-02T10:27:32.863Z,44.50
2019-05-02T10:28:49.309Z,43.60
2019-05-02T10:29:49.856Z,41.75
2019-05-02T10:30:56.647Z,44.48
2019-05-02T10:32:01.781Z,42.85
2019-05-02T10:33:06.621Z,44.13
2019-05-02T10:34:16.269Z,44.23
2019-05-02T10:35:19.760Z,43.33
2019-05-02T10:36:24.196Z,42.08
2019-05-02T10:37:30.560Z,40.65
2019-05-02T10:38:34.759Z,41.13
2019-05-02T10:39:39.343Z,39.42
2019-05-02T10:40:43.597Z,40.15
2019-05-02T10:41:47.841Z,40.65
2019-05-02T10:42:52.354Z,39.78
2019-05-02T10:43:59.350Z,37.75
2019-05-02T10:45:02.846Z,40.83
2019-05-02T10:46:27.747Z,39.75
2019-05-02T10:47:32.305Z,34.43
2019-05-02T10:48:38.131Z,35.23
2019-05-02T10:49:46.678Z,31.80
2019-05-02T10:50:52.639Z,31.80
2019-05-02T10:51:56.828Z,33.03
2019-05-02T10:53:03.563Z,33.97
2019-05-02T10:54:07.289Z,32.67
2019-05-02T10:55:12.862Z,34.27
2019-05-02T10:56:17.092Z,32.97
2019-05-02T10:57:21.931Z,31.33
2019-05-02T10:58:31.164Z,30.10
2019-05-02T10:59:32.780Z,30.13
2019-05-02T11:00:38.416Z,31.55
2019-05-02T11:01:44.325Z,31.05
2019-05-02T11:03:08.368Z,30.68
2019-05-02T11:04:14.189Z,32.77
2019-05-02T11:05:24.697Z,31.47
2019-05-02T11:06:25.913Z,29.95
2019-05-02T11:07:30.219Z,31.07
2019-05-02T11:08:36.829Z,30.52
2019-05-02T11:09:42.005Z,28.30
2019-05-02T11:10:46.269Z,27.00
2019-05-02T11:11:51.973Z,27.90
2019-05-02T11:12:58.030Z,31.77
2019-05-02T11:14:22.447Z,28.47
2019-05-02T11:15:33.578Z,29.25
2019-05-02T11:16:42.284Z,28.62
2019-05-02T11:17:47.387Z,27.17
2019-05-02T11:19:05.013Z,30.35
2019-05-02T11:20:12.284Z,30.85
2019-05-02T11:21:18.913Z,30.63
2019-05-02T11:22:23.174Z,29.60
2019-05-02T11:23:27.590Z,29.10
2019-05-02T11:24:31.779Z,26.52
2019-05-02T11:25:36.069Z,27.73
2019-05-02T11:26:40.541Z,27.45
2019-05-02T11:27:44.800Z,26.70
2019-05-02T11:28:48.990Z,26.82
2019-05-02T11:29:54.135Z,26.95
2019-05-02T11:31:02.672Z,25.83
2019-05-02T11:32:04.498Z,30.97
2019-05-02T11:33:08.680Z,29.05
2019-05-02T11:34:12.978Z,27.43
2019-05-02T11:35:17.250Z,27.97
2019-05-02T11:36:22.466Z,30.95
2019-05-02T11:37:26.686Z,27.65
2019-05-02T11:38:45.555Z,25.88
2019-05-02T11:39:44.774Z,26.23
2019-05-02T11:40:43.507Z,24.92
2019-05-02T11:41:47.748Z,26.70
2019-05-02T11:42:52.259Z,30.10
2019-05-02T11:43:56.439Z,29.52
2019-05-02T11:45:02.662Z,30.65
2019-05-02T11:46:07.779Z,29.40
2019-05-02T11:47:12.650Z,27.07
2019-05-02T11:48:19.730Z,25.87
2019-05-02T11:49:24.008Z,26.23
2019-05-02T11:50:33.180Z,25.45
2019-05-02T11:51:34.572Z,25.32
2019-05-02T11:52:39.222Z,23.85
2019-05-02T11:53:43.882Z,24.30
2019-05-02T11:54:49.570Z,24.65
2019-05-02T11:56:03.704Z,24.06
2019-05-02T11:57:05.164Z,24.77
2019-05-02T11:58:12.561Z,23.40
2019-05-02T11:59:20.804Z,25.40
2019-05-02T12:00:22.917Z,25.10
2019-05-02T12:01:35.560Z,24.57
2019-05-02T12:02:37.765Z,24.82
2019-05-02T12:03:46.245Z,24.47
2019-05-02T12:04:53.980Z,21.82
2019-05-02T12:05:56.784Z,21.70
2019-05-02T12:07:04.732Z,23.05
2019-05-02T12:08:08.094Z,23.75
2019-05-02T12:09:13.381Z,22.63
2019-05-02T12:10:17.670Z,22.43
2019-05-02T12:11:22.855Z,21.53
2019-05-02T12:12:31.668Z,21.70
2019-05-02T12:13:33.451Z,21.55
2019-05-02T12:14:37.748Z,20.65
2019-05-02T12:15:44.201Z,20.90
2019-05-02T12:16:48.032Z,20.70
2019-05-02T12:17:52.221Z,21.37
2019-05-02T12:19:08.480Z,21.60
2019-05-02T12:20:02.682Z,23.65
2019-05-02T12:21:07.260Z,21.02
2019-05-02T12:22:13.058Z,21.23
2019-05-02T12:23:17.504Z,19.23
2019-05-02T12:24:22.181Z,19.73
2019-05-02T12:25:26.429Z,20.92
2019-05-02T12:26:32.393Z,21.60
2019-05-02T12:27:36.978Z,20.57
2019-05-02T12:28:42.874Z,21.80
2019-05-02T12:29:50.173Z,21.60
2019-05-02T12:30:53.758Z,19.98
2019-05-02T12:31:58.430Z,20.02
2019-05-02T12:33:03.292Z,19.55
2019-05-02T12:34:07.737Z,19.20
2019-05-02T12:35:11.984Z,21.10
2019-05-02T12:36:16.211Z,19.90
2019-05-02T12:37:21.884Z,19.77
2019-05-02T12:38:26.249Z,18.57
2019-05-02T12:39:31.685Z,18.42
2019-05-02T12:40:36.508Z,18.90
2019-05-02T12:41:42.274Z,19.07
2019-05-02T12:42:47.115Z,18.52
2019-05-02T12:43:52.483Z,18.32
2019-05-02T12:44:57.083Z,18.42
2019-05-02T12:46:02.247Z,19.17
2019-05-02T12:47:07.798Z,18.15
2019-05-02T12:48:12.916Z,18.10
2019-05-02T12:49:25.314Z,17.90
2019-05-02T12:50:26.328Z,18.17
2019-05-02T12:51:32.039Z,17.37
2019-05-02T12:52:36.463Z,17.07
2019-05-02T12:53:41.796Z,20.37
2019-05-02T12:54:46.758Z,19.67
2019-05-02T12:55:52.764Z,19.40
2019-05-02T12:56:57.472Z,19.13
2019-05-02T12:58:03.118Z,19.70
2019-05-02T12:59:07.611Z,18.55
2019-05-02T13:00:12.821Z,17.83
2019-05-02T13:01:17.414Z,17.77
2019-05-02T13:02:41.695Z,18.27
2019-05-02T13:03:51.784Z,15.13
2019-05-02T13:04:57.142Z,17.35
2019-05-02T13:06:03.047Z,17.00
2019-05-02T13:07:07.400Z,16.50
2019-05-02T13:08:12.865Z,18.40
2019-05-02T13:09:17.403Z,16.03
2019-05-02T13:10:26.216Z,16.90
2019-05-02T13:11:32.214Z,16.50
2019-05-02T13:12:38.227Z,17.37
2019-05-02T13:13:43.613Z,18.45
2019-05-02T13:14:48.789Z,17.42
2019-05-02T13:15:53.157Z,16.93
2019-05-02T13:17:01.558Z,17.92
2019-05-02T13:18:03.421Z,16.42
2019-05-02T13:19:07.751Z,17.17
2019-05-02T13:20:13.687Z,16.17
2019-05-02T13:21:21.548Z,14.50
2019-05-02T13:22:45.212Z,15.70
2019-05-02T13:23:53.895Z,15.75
2019-05-02T13:25:02.044Z,15.90
2019-05-02T13:26:18.197Z,15.15
2019-05-02T13:27:13.491Z,15.50
2019-05-02T13:28:22.330Z,15.23
2019-05-02T13:29:23.807Z,15.58
2019-05-02T13:30:42.721Z,16.45
2019-05-02T13:31:49.193Z,15.60
2019-05-02T13:32:57.906Z,16.23
2019-05-02T13:34:14.871Z,16.23
2019-05-02T13:35:24.923Z,15.43
2019-05-02T13:36:42.302Z,16.53
2019-05-02T13:37:48.848Z,15.20
2019-05-02T13:38:53.548Z,15.83
2019-05-02T13:39:59.431Z,14.65
2019-05-02T13:41:03.690Z,14.70
2019-05-02T13:42:08.241Z,14.23
2019-05-02T13:43:12.684Z,15.80
2019-05-02T13:44:18.519Z,15.33
2019-05-02T13:45:33.316Z,14.60
2019-05-02T13:46:37.499Z,14.80
2019-05-02T13:47:42.599Z,14.65
2019-05-02T13:48:46.994Z,16.20
2019-05-02T13:49:54.827Z,15.13
2019-05-02T13:50:57.462Z,16.85
2019-05-02T13:52:02.709Z,16.48
2019-05-02T13:53:06.998Z,16.00
2019-05-02T13:54:12.591Z,15.97
2019-05-02T13:55:18.649Z,15.30
2019-05-02T13:56:24.532Z,16.13
2019-05-02T13:57:28.722Z,16.82
2019-05-02T13:58:35.721Z,16.85
2019-05-02T13:59:41.654Z,16.65
2019-05-02T14:00:50.103Z,14.80
2019-05-02T14:01:54.867Z,15.85
2019-05-02T14:02:59.119Z,16.45
2019-05-02T14:04:10.071Z,16.90
2019-05-02T14:05:10.224Z,16.52
2019-05-02T14:06:14.465Z,15.90
2019-05-02T14:07:18.833Z,15.07
2019-05-02T14:08:35.457Z,15.85